Algodones, New Mexico
Current Conditions -  °F | °C
As of 5:52 PM on Saturday 25 Oct 2014 (Local Time) from KABQ Reporting Station
Clear Clear  
Wind Chill: 76°   Ceiling: Unl
Heat Index: 76°   Visibility: 10mi
Dew Point: 33°   Wind: 8mph
Humidity: 21%   Direction: 180°S
Pressure: 30.17"   Gusts: NA
Location:  35.38°N, 106.48°W
Report Text: KABQ 252352Z 18007KT 10SM CLR 24/01 A3017 RMK AO2 SLP154 T02440006 10256 20200 58017
Loading
Personal Weather Stations






























Interactive Weather Map New forecast layout! Learn more

10-Day Weather Forecast

Advertisements
Track Severe Weather on mobile